createdAt,value
2023-05-12T00:02:39.664Z,10.60
2023-05-12T00:05:25.902Z,10.60
2023-05-12T00:08:12.203Z,10.60
2023-05-12T00:10:58.649Z,10.60
2023-05-12T00:13:44.823Z,10.60
2023-05-12T00:16:31.231Z,10.70
2023-05-12T00:19:20.462Z,10.60
2023-05-12T00:22:06.921Z,10.70
2023-05-12T00:24:53.831Z,10.60
2023-05-12T00:27:39.931Z,10.70
2023-05-12T00:30:26.018Z,10.70
2023-05-12T00:33:12.330Z,10.60
2023-05-12T00:36:00.554Z,10.60
2023-05-12T00:38:47.184Z,10.70
2023-05-12T00:41:33.313Z,10.60
2023-05-12T00:44:19.394Z,10.60
2023-05-12T00:47:06.009Z,10.60
2023-05-12T00:49:52.811Z,10.60
2023-05-12T00:52:39.126Z,10.60
2023-05-12T00:55:26.864Z,10.60
2023-05-12T00:58:14.353Z,10.60
2023-05-12T01:01:00.619Z,10.60
2023-05-12T01:03:47.125Z,10.60
2023-05-12T01:06:55.412Z,10.60
2023-05-12T01:09:41.617Z,10.60
2023-05-12T01:12:29.284Z,10.60
2023-05-12T01:15:17.036Z,10.60
2023-05-12T01:18:06.679Z,10.70
2023-05-12T01:20:55.697Z,10.70
2023-05-12T01:23:48.752Z,10.70
2023-05-12T01:26:35.941Z,10.70
2023-05-12T01:29:23.465Z,10.70
2023-05-12T01:32:10.780Z,10.70
2023-05-12T01:34:57.989Z,10.70
2023-05-12T01:37:45.764Z,10.70
2023-05-12T01:40:32.121Z,10.70
2023-05-12T01:43:21.465Z,10.70
2023-05-12T01:46:10.800Z,10.80
2023-05-12T01:48:58.528Z,10.80
2023-05-12T01:51:45.648Z,10.80
2023-05-12T01:54:32.206Z,10.80
2023-05-12T01:57:18.883Z,10.70
2023-05-12T02:00:08.000Z,10.70
2023-05-12T02:02:59.485Z,10.70
2023-05-12T02:05:45.609Z,10.70
2023-05-12T02:08:31.669Z,10.60
2023-05-12T02:11:17.797Z,10.70
2023-05-12T02:14:03.784Z,10.70
2023-05-12T02:16:52.978Z,10.70
2023-05-12T02:19:41.411Z,10.70
2023-05-12T02:22:30.765Z,10.70
2023-05-12T02:25:19.114Z,10.70
2023-05-12T02:28:08.153Z,10.70
2023-05-12T02:30:54.755Z,10.60
2023-05-12T02:33:41.165Z,10.60
2023-05-12T02:36:27.796Z,10.60
2023-05-12T02:39:14.028Z,10.60
2023-05-12T02:42:00.798Z,10.60
2023-05-12T02:44:47.281Z,10.60
2023-05-12T02:47:33.340Z,10.60
2023-05-12T02:50:21.814Z,10.60
2023-05-12T02:53:08.357Z,10.60
2023-05-12T02:55:54.935Z,10.60
2023-05-12T02:58:40.971Z,10.60
2023-05-12T03:01:27.301Z,10.60
2023-05-12T03:04:13.351Z,10.70
2023-05-12T03:07:00.677Z,10.70
2023-05-12T03:09:47.993Z,10.70
2023-05-12T03:12:34.620Z,10.70
2023-05-12T03:15:20.565Z,10.60
2023-05-12T03:18:07.087Z,10.60
2023-05-12T03:20:53.669Z,10.60
2023-05-12T03:23:41.864Z,10.60
2023-05-12T03:26:27.860Z,10.60
2023-05-12T03:29:14.785Z,10.60
2023-05-12T03:32:01.047Z,10.60
2023-05-12T03:34:47.496Z,10.60
2023-05-12T03:37:35.218Z,10.60
2023-05-12T03:40:21.706Z,10.60
2023-05-12T03:43:08.061Z,10.60
2023-05-12T03:45:54.299Z,10.60
2023-05-12T03:48:40.553Z,10.60
2023-05-12T03:51:28.168Z,10.70
2023-05-12T03:54:14.179Z,10.70
2023-05-12T03:57:01.708Z,10.70
2023-05-12T03:59:47.549Z,10.80
2023-05-12T04:02:34.265Z,10.70
2023-05-12T04:05:20.755Z,10.80
2023-05-12T04:08:07.204Z,10.80
2023-05-12T04:10:58.928Z,10.70
2023-05-12T04:13:45.047Z,10.70
2023-05-12T04:16:31.235Z,10.80
2023-05-12T04:19:18.227Z,10.90
2023-05-12T04:22:04.324Z,10.90
2023-05-12T04:24:50.734Z,11.00
2023-05-12T04:27:37.122Z,11.10
2023-05-12T04:30:23.647Z,11.10
2023-05-12T04:33:10.536Z,11.10
2023-05-12T04:35:58.285Z,11.00
2023-05-12T04:38:44.807Z,11.10
2023-05-12T04:41:31.405Z,11.10
2023-05-12T04:44:17.951Z,11.10
2023-05-12T04:47:04.597Z,11.10
2023-05-12T04:49:50.820Z,11.10
2023-05-12T04:52:38.050Z,11.10
2023-05-12T04:55:24.413Z,11.10
2023-05-12T04:58:10.560Z,11.10
2023-05-12T05:00:57.233Z,11.10
2023-05-12T05:03:43.371Z,11.10
2023-05-12T05:06:30.765Z,11.20
2023-05-12T05:09:17.634Z,11.30
2023-05-12T05:12:03.639Z,11.40
2023-05-12T05:14:50.518Z,11.40
2023-05-12T05:17:36.934Z,11.40
2023-05-12T05:20:28.908Z,11.40
2023-05-12T05:23:16.189Z,11.40
2023-05-12T05:26:02.394Z,11.50
2023-05-12T05:28:48.402Z,11.40
2023-05-12T05:31:34.341Z,11.40
2023-05-12T05:34:20.877Z,11.40
2023-05-12T05:37:07.301Z,11.30
2023-05-12T05:39:53.184Z,11.40
2023-05-12T05:42:39.501Z,11.40
2023-05-12T05:45:28.113Z,11.50
2023-05-12T05:48:15.188Z,11.60
2023-05-12T05:51:01.843Z,11.60
2023-05-12T05:53:48.866Z,11.60
2023-05-12T05:56:36.154Z,11.70
2023-05-12T05:59:22.591Z,11.70
2023-05-12T06:02:09.438Z,11.80
2023-05-12T06:04:56.784Z,11.80
2023-05-12T06:07:43.257Z,11.90
2023-05-12T06:10:29.599Z,11.90
2023-05-12T06:13:15.588Z,12.00
2023-05-12T06:16:01.545Z,12.10
2023-05-12T06:18:47.591Z,12.30
2023-05-12T06:21:33.608Z,12.40
2023-05-12T06:24:19.798Z,12.40
2023-05-12T06:27:06.456Z,12.50
2023-05-12T06:29:52.677Z,12.60
2023-05-12T06:32:38.743Z,12.60
2023-05-12T06:35:25.266Z,12.50
2023-05-12T06:38:11.286Z,12.50
2023-05-12T06:40:57.324Z,12.50
2023-05-12T06:43:43.392Z,12.40
2023-05-12T06:46:29.287Z,12.30
2023-05-12T06:49:15.641Z,12.30
2023-05-12T06:52:02.029Z,12.30
2023-05-12T06:54:48.349Z,12.40
2023-05-12T06:57:34.562Z,12.40
2023-05-12T07:00:21.881Z,12.40
2023-05-12T07:03:10.322Z,12.30
2023-05-12T07:05:57.326Z,12.40
2023-05-12T07:08:43.314Z,12.30
2023-05-12T07:11:29.413Z,12.30
2023-05-12T07:14:15.478Z,12.30
2023-05-12T07:17:01.764Z,12.30
2023-05-12T07:19:47.842Z,12.30
2023-05-12T07:22:35.144Z,12.40
2023-05-12T07:25:23.261Z,12.40
2023-05-12T07:28:09.725Z,12.30
2023-05-12T07:30:55.846Z,12.50
2023-05-12T07:33:42.715Z,12.50
2023-05-12T07:36:28.737Z,12.50
2023-05-12T07:39:19.124Z,12.50
2023-05-12T07:42:05.553Z,12.40
2023-05-12T07:44:51.858Z,12.40
2023-05-12T07:47:37.891Z,12.30
2023-05-12T07:50:23.911Z,12.20
2023-05-12T07:53:09.798Z,12.10
2023-05-12T07:55:55.786Z,12.10
2023-05-12T07:58:42.250Z,12.20
2023-05-12T08:01:28.328Z,12.40
2023-05-12T08:04:14.887Z,12.80
2023-05-12T08:07:01.188Z,13.00
2023-05-12T08:09:47.420Z,13.20
2023-05-12T08:12:33.988Z,13.40
2023-05-12T08:15:20.107Z,13.40
2023-05-12T08:18:06.474Z,13.40
2023-05-12T08:20:53.030Z,13.30
2023-05-12T08:23:39.081Z,13.10
2023-05-12T08:26:25.215Z,12.90
2023-05-12T08:29:11.410Z,12.80
2023-05-12T08:31:58.686Z,12.80
2023-05-12T08:34:44.642Z,12.70
2023-05-12T08:37:34.336Z,12.70
2023-05-12T08:40:22.550Z,12.70
2023-05-12T08:43:26.027Z,12.80
2023-05-12T08:46:13.506Z,12.90
2023-05-12T08:49:02.527Z,12.90
2023-05-12T08:51:57.301Z,12.90
2023-05-12T08:54:55.019Z,12.90
2023-05-12T08:57:48.473Z,12.90
2023-05-12T09:00:36.409Z,13.10
2023-05-12T09:03:24.114Z,13.30
2023-05-12T09:06:11.643Z,13.50
2023-05-12T09:08:58.339Z,13.80
2023-05-12T09:11:45.139Z,14.00
2023-05-12T09:14:35.166Z,14.30
2023-05-12T09:17:21.670Z,14.60
2023-05-12T09:20:13.123Z,14.80
2023-05-12T09:23:22.276Z,14.90
2023-05-12T09:26:08.481Z,15.00
2023-05-12T09:29:04.447Z,15.10
2023-05-12T09:31:56.038Z,15.20
2023-05-12T09:34:43.609Z,15.40
2023-05-12T09:37:34.682Z,15.70
2023-05-12T09:40:21.191Z,15.60
2023-05-12T09:43:08.306Z,15.60
2023-05-12T09:45:55.630Z,15.70
2023-05-12T09:48:42.057Z,15.60
2023-05-12T09:51:29.271Z,15.40
2023-05-12T09:54:28.494Z,15.30
2023-05-12T09:57:17.701Z,15.20
2023-05-12T10:00:09.193Z,15.20
2023-05-12T10:03:01.435Z,15.20
2023-05-12T10:05:57.846Z,15.30
2023-05-12T10:08:53.003Z,15.60
2023-05-12T10:11:41.278Z,15.80
2023-05-12T10:14:27.818Z,15.90
2023-05-12T10:17:15.184Z,16.10
2023-05-12T10:20:03.681Z,16.20
2023-05-12T10:22:52.374Z,16.30
2023-05-12T10:25:43.876Z,16.30
2023-05-12T10:28:29.994Z,16.20
2023-05-12T10:31:16.331Z,16.20
2023-05-12T10:34:03.544Z,16.10
2023-05-12T10:36:51.172Z,16.20
2023-05-12T10:39:38.242Z,16.20
2023-05-12T10:42:25.722Z,16.10
2023-05-12T10:45:19.944Z,16.00
2023-05-12T10:48:07.553Z,15.90
2023-05-12T10:50:54.641Z,15.60
2023-05-12T10:53:49.237Z,15.40
2023-05-12T10:56:38.331Z,15.10
2023-05-12T10:59:27.561Z,14.90
2023-05-12T11:02:23.431Z,14.70
2023-05-12T11:05:13.693Z,14.60
2023-05-12T11:08:00.672Z,14.50
2023-05-12T11:10:47.178Z,14.50
2023-05-12T11:13:35.394Z,14.40
2023-05-12T11:16:21.724Z,14.40
2023-05-12T11:19:08.461Z,14.40
2023-05-12T11:21:58.000Z,14.30
2023-05-12T11:24:44.434Z,14.30
2023-05-12T11:27:30.764Z,14.30
2023-05-12T11:30:17.430Z,14.20
2023-05-12T11:33:04.279Z,14.10
2023-05-12T11:35:51.106Z,14.00
2023-05-12T11:38:37.094Z,13.90
2023-05-12T11:41:26.693Z,14.00
2023-05-12T11:44:23.169Z,14.10
2023-05-12T11:47:14.604Z,14.20
2023-05-12T11:50:03.417Z,14.20
2023-05-12T11:52:50.213Z,14.40
2023-05-12T11:55:36.119Z,14.50
2023-05-12T11:58:27.246Z,14.70
2023-05-12T12:01:14.669Z,14.80
2023-05-12T12:04:01.275Z,14.90
2023-05-12T12:06:48.251Z,14.90
2023-05-12T12:09:42.329Z,14.90
2023-05-12T12:12:29.376Z,14.90
2023-05-12T12:15:17.235Z,14.90
2023-05-12T12:18:04.372Z,14.70
2023-05-12T12:20:50.800Z,14.60
2023-05-12T12:23:47.656Z,14.60
2023-05-12T12:26:38.949Z,14.40
2023-05-12T12:29:28.410Z,14.40
2023-05-12T12:32:14.613Z,14.40
2023-05-12T12:35:03.850Z,14.40
2023-05-12T12:37:52.304Z,14.40
2023-05-12T12:40:38.694Z,14.40
2023-05-12T12:43:24.814Z,14.50
2023-05-12T12:46:11.640Z,14.50
2023-05-12T12:48:58.237Z,14.50
2023-05-12T12:51:46.634Z,14.50
2023-05-12T12:54:34.524Z,14.50
2023-05-12T12:57:23.167Z,14.50
2023-05-12T13:00:10.257Z,14.60
2023-05-12T13:02:57.204Z,14.60
2023-05-12T13:05:44.050Z,14.50
2023-05-12T13:08:30.142Z,14.60
2023-05-12T13:11:16.489Z,14.70
2023-05-12T13:14:04.487Z,14.80
2023-05-12T13:16:52.873Z,14.90
2023-05-12T13:19:39.406Z,15.00
2023-05-12T13:22:29.052Z,15.00
2023-05-12T13:25:15.704Z,15.00
2023-05-12T13:28:02.018Z,15.00
2023-05-12T13:30:49.264Z,14.90
2023-05-12T13:33:35.764Z,14.80
2023-05-12T13:36:22.062Z,14.90
2023-05-12T13:39:10.107Z,14.90
2023-05-12T13:41:56.330Z,14.90
2023-05-12T13:44:42.524Z,15.00
2023-05-12T13:47:28.858Z,15.00
2023-05-12T13:50:15.101Z,14.90
2023-05-12T13:53:01.233Z,14.80
2023-05-12T13:55:47.472Z,14.70
2023-05-12T13:58:33.525Z,14.70
2023-05-12T14:01:21.041Z,14.60
2023-05-12T14:04:07.345Z,14.60
2023-05-12T14:06:53.996Z,14.60
2023-05-12T14:09:41.250Z,14.60
2023-05-12T14:12:27.560Z,14.60
2023-05-12T14:15:28.756Z,14.50
2023-05-12T14:18:20.549Z,14.50
2023-05-12T14:21:07.046Z,14.60
2023-05-12T14:23:53.262Z,14.60
2023-05-12T14:26:39.389Z,14.50
2023-05-12T14:29:25.555Z,14.40
2023-05-12T14:32:11.839Z,14.30
2023-05-12T14:34:57.859Z,14.30
2023-05-12T14:37:44.840Z,14.20
2023-05-12T14:40:31.386Z,14.20
2023-05-12T14:43:17.804Z,14.10
2023-05-12T14:46:04.551Z,14.10
2023-05-12T14:48:50.628Z,14.10
2023-05-12T14:51:36.974Z,14.10
2023-05-12T14:54:25.908Z,14.20
2023-05-12T14:57:13.675Z,14.30
2023-05-12T15:00:00.680Z,14.40
2023-05-12T15:02:47.231Z,14.40
2023-05-12T15:05:52.767Z,14.50
2023-05-12T15:08:39.781Z,14.60
2023-05-12T15:11:26.104Z,14.60
2023-05-12T15:14:12.917Z,14.70
2023-05-12T15:16:59.540Z,14.60
2023-05-12T15:19:46.354Z,14.50
2023-05-12T15:22:32.473Z,14.40
2023-05-12T15:25:19.020Z,14.30
2023-05-12T15:28:05.565Z,14.30
2023-05-12T15:30:58.098Z,14.30
2023-05-12T15:33:44.157Z,14.20
2023-05-12T15:36:30.994Z,14.30
2023-05-12T15:39:17.525Z,14.40
2023-05-12T15:42:05.523Z,14.40
2023-05-12T15:44:53.771Z,14.50
2023-05-12T15:47:39.716Z,14.50
2023-05-12T15:50:26.239Z,14.50
2023-05-12T15:53:12.670Z,14.50
2023-05-12T15:56:02.676Z,14.30
2023-05-12T15:58:49.106Z,14.30
2023-05-12T16:01:35.676Z,14.20
2023-05-12T16:04:23.724Z,14.00
2023-05-12T16:07:09.812Z,14.00
2023-05-12T16:09:55.957Z,13.90
2023-05-12T16:12:42.120Z,13.90
2023-05-12T16:15:28.019Z,13.90
2023-05-12T16:18:14.100Z,14.00
2023-05-12T16:21:01.690Z,14.00
2023-05-12T16:23:48.028Z,13.90
2023-05-12T16:26:34.561Z,13.90
2023-05-12T16:29:20.789Z,13.80
2023-05-12T16:32:07.463Z,13.70
2023-05-12T16:34:53.378Z,13.60
2023-05-12T16:37:39.358Z,13.60
2023-05-12T16:40:25.440Z,13.60
2023-05-12T16:43:11.742Z,13.50
2023-05-12T16:46:02.825Z,13.40
2023-05-12T16:48:49.340Z,13.50
2023-05-12T16:51:35.855Z,13.40
2023-05-12T16:54:22.159Z,13.40
2023-05-12T16:57:08.842Z,13.40
2023-05-12T16:59:54.945Z,13.30
2023-05-12T17:02:41.291Z,13.30
2023-05-12T17:05:27.683Z,13.30
2023-05-12T17:08:13.886Z,13.30
2023-05-12T17:11:00.008Z,13.30
2023-05-12T17:13:46.702Z,13.30
2023-05-12T17:16:33.197Z,13.30
2023-05-12T17:19:19.597Z,13.20
2023-05-12T17:22:05.908Z,13.10
2023-05-12T17:24:51.997Z,13.00
2023-05-12T17:27:37.994Z,13.00
2023-05-12T17:30:24.027Z,13.00
2023-05-12T17:33:10.174Z,13.00
2023-05-12T17:36:10.904Z,13.00
2023-05-12T17:38:58.698Z,13.00
2023-05-12T17:41:44.810Z,12.90
2023-05-12T17:44:30.901Z,12.90
2023-05-12T17:47:17.098Z,12.90
2023-05-12T17:50:03.640Z,12.80
2023-05-12T17:52:49.793Z,12.80
2023-05-12T17:55:36.158Z,12.80
2023-05-12T17:58:22.414Z,12.80
2023-05-12T18:01:09.149Z,12.80
2023-05-12T18:03:56.280Z,12.70
2023-05-12T18:06:42.460Z,12.70
2023-05-12T18:09:30.113Z,12.70
2023-05-12T18:12:18.045Z,12.70
2023-05-12T18:15:05.655Z,12.80
2023-05-12T18:17:51.765Z,12.80
2023-05-12T18:20:37.909Z,12.70
2023-05-12T18:23:24.239Z,12.70
2023-05-12T18:26:10.486Z,12.70
2023-05-12T18:28:56.430Z,12.70
2023-05-12T18:31:44.163Z,12.60
2023-05-12T18:34:30.363Z,12.60
2023-05-12T18:37:17.398Z,12.60
2023-05-12T18:40:03.302Z,12.60
2023-05-12T18:42:50.745Z,12.60
2023-05-12T18:45:37.005Z,12.60
2023-05-12T18:48:23.326Z,12.60
2023-05-12T18:51:09.583Z,12.60
2023-05-12T18:53:56.446Z,12.50
2023-05-12T18:56:42.520Z,12.50
2023-05-12T18:59:29.042Z,12.50
2023-05-12T19:02:15.570Z,12.40
2023-05-12T19:05:01.951Z,12.40
2023-05-12T19:07:48.336Z,12.40
2023-05-12T19:10:34.618Z,12.40
2023-05-12T19:13:21.243Z,12.40
2023-05-12T19:16:07.479Z,12.40
2023-05-12T19:18:54.294Z,12.50
2023-05-12T19:21:40.743Z,12.40
2023-05-12T19:24:27.143Z,12.30
2023-05-12T19:27:13.017Z,12.30
2023-05-12T19:29:59.221Z,12.30
2023-05-12T19:32:46.259Z,12.20
2023-05-12T19:35:33.935Z,12.20
2023-05-12T19:38:20.027Z,12.20
2023-05-12T19:41:06.050Z,12.20
2023-05-12T19:43:51.846Z,12.20
2023-05-12T19:46:37.896Z,12.10
2023-05-12T19:49:23.881Z,12.10
2023-05-12T19:52:09.956Z,12.10
2023-05-12T19:54:56.355Z,12.10
2023-05-12T19:57:42.419Z,12.10
2023-05-12T20:00:28.709Z,12.10
2023-05-12T20:03:15.620Z,12.10
2023-05-12T20:06:01.803Z,12.10
2023-05-12T20:08:48.053Z,12.10
2023-05-12T20:11:34.116Z,12.10
2023-05-12T20:14:20.060Z,12.10
2023-05-12T20:17:07.615Z,12.10
2023-05-12T20:19:53.697Z,12.10
2023-05-12T20:22:39.626Z,12.00
2023-05-12T20:25:27.051Z,12.00
2023-05-12T20:28:14.094Z,12.00
2023-05-12T20:30:59.929Z,12.00
2023-05-12T20:33:46.005Z,12.10
2023-05-12T20:36:33.016Z,12.10
2023-05-12T20:39:19.669Z,12.00
2023-05-12T20:42:06.302Z,12.00
2023-05-12T20:44:52.810Z,11.90
2023-05-12T20:47:38.787Z,11.90
2023-05-12T20:50:27.485Z,11.90
2023-05-12T20:53:13.758Z,11.90
2023-05-12T20:55:59.751Z,11.90
2023-05-12T20:58:45.921Z,11.90
2023-05-12T21:01:32.414Z,11.90
2023-05-12T21:04:19.028Z,11.80
2023-05-12T21:07:05.732Z,11.90
2023-05-12T21:09:52.150Z,11.90
2023-05-12T21:12:38.585Z,11.80
2023-05-12T21:15:26.515Z,11.80
2023-05-12T21:18:13.380Z,11.70
2023-05-12T21:20:59.566Z,11.70
2023-05-12T21:23:46.392Z,11.80
2023-05-12T21:26:33.051Z,11.80
2023-05-12T21:29:19.119Z,11.80
2023-05-12T21:32:05.792Z,11.80
2023-05-12T21:34:52.254Z,11.70
2023-05-12T21:37:38.456Z,11.70
2023-05-12T21:40:24.990Z,11.70
2023-05-12T21:43:11.407Z,11.80
2023-05-12T21:46:02.654Z,11.80
2023-05-12T21:48:48.866Z,11.80
2023-05-12T21:51:35.055Z,11.70
2023-05-12T21:54:21.408Z,11.70
2023-05-12T21:57:07.623Z,11.70
2023-05-12T21:59:53.678Z,11.70
2023-05-12T22:02:39.891Z,11.60
2023-05-12T22:05:26.717Z,11.60
2023-05-12T22:08:12.852Z,11.60
2023-05-12T22:10:58.866Z,11.70
2023-05-12T22:13:44.853Z,11.70
2023-05-12T22:16:40.867Z,11.70
2023-05-12T22:19:28.212Z,11.70
2023-05-12T22:22:14.672Z,11.70
2023-05-12T22:25:00.799Z,11.60
2023-05-12T22:27:46.983Z,11.70
2023-05-12T22:30:32.973Z,11.70
2023-05-12T22:33:19.168Z,11.70
2023-05-12T22:36:05.553Z,11.70
2023-05-12T22:38:51.664Z,11.70
2023-05-12T22:41:38.776Z,11.70
2023-05-12T22:44:25.057Z,11.70
2023-05-12T22:47:11.481Z,11.70
2023-05-12T22:49:57.895Z,11.70
2023-05-12T22:52:44.187Z,11.70
2023-05-12T22:55:33.054Z,11.70
2023-05-12T22:58:19.374Z,11.70
2023-05-12T23:01:06.152Z,11.70
2023-05-12T23:03:54.278Z,11.70
2023-05-12T23:06:40.652Z,11.70
2023-05-12T23:09:26.691Z,11.70
2023-05-12T23:12:12.693Z,11.70
2023-05-12T23:14:58.848Z,11.70
2023-05-12T23:17:44.912Z,11.60
2023-05-12T23:20:31.737Z,11.60
2023-05-12T23:23:17.690Z,11.60
2023-05-12T23:26:03.733Z,11.60
2023-05-12T23:28:50.579Z,11.60
2023-05-12T23:31:37.351Z,11.60
2023-05-12T23:34:23.455Z,11.50
2023-05-12T23:37:09.937Z,11.60
2023-05-12T23:39:56.156Z,11.50
2023-05-12T23:42:42.244Z,11.50
2023-05-12T23:45:28.251Z,11.50
2023-05-12T23:48:14.454Z,11.50
2023-05-12T23:51:00.395Z,11.50
2023-05-12T23:53:46.429Z,11.50
2023-05-12T23:56:32.476Z,11.50
2023-05-12T23:59:18.636Z,11.40
